createdAt,value
2023-04-18T00:00:27.864Z,71.46
2023-04-18T00:02:54.579Z,71.97
2023-04-18T00:05:21.687Z,71.42
2023-04-18T00:07:48.455Z,72.03
2023-04-18T00:10:16.574Z,71.85
2023-04-18T00:12:43.001Z,72.96
2023-04-18T00:15:11.008Z,72.90
2023-04-18T00:17:37.508Z,73.45
2023-04-18T00:20:04.549Z,72.34
2023-04-18T00:22:30.947Z,72.63
2023-04-18T00:24:57.300Z,73.24
2023-04-18T00:27:25.137Z,73.49
2023-04-18T00:29:51.566Z,72.79
2023-04-18T00:32:18.230Z,72.39
2023-04-18T00:34:45.137Z,73.85
2023-04-18T00:37:12.730Z,73.42
2023-04-18T00:39:39.139Z,74.27
2023-04-18T00:42:05.936Z,74.19
2023-04-18T00:44:33.756Z,72.52
2023-04-18T00:47:00.151Z,73.09
2023-04-18T00:49:27.404Z,73.17
2023-04-18T00:51:55.502Z,72.29
2023-04-18T00:54:22.393Z,72.62
2023-04-18T00:56:48.798Z,74.04
2023-04-18T00:59:15.226Z,74.54
2023-04-18T01:01:43.168Z,74.75
2023-04-18T01:04:09.631Z,74.32
2023-04-18T01:06:36.283Z,73.64
2023-04-18T01:09:02.829Z,72.94
2023-04-18T01:11:29.201Z,74.28
2023-04-18T01:13:59.546Z,74.37
2023-04-18T01:16:26.120Z,73.10
2023-04-18T01:18:53.828Z,75.37
2023-04-18T01:21:20.280Z,75.09
2023-04-18T01:23:47.785Z,76.09
2023-04-18T01:26:15.552Z,76.75
2023-04-18T01:28:41.971Z,76.01
2023-04-18T01:31:08.377Z,75.50
2023-04-18T01:33:34.776Z,75.31
2023-04-18T01:36:01.216Z,77.02
2023-04-18T01:38:27.591Z,77.26
2023-04-18T01:40:53.975Z,77.35
2023-04-18T01:43:21.778Z,78.01
2023-04-18T01:45:48.137Z,78.96
2023-04-18T01:48:14.491Z,79.36
2023-04-18T01:50:40.918Z,78.50
2023-04-18T01:53:07.273Z,78.26
2023-04-18T01:55:33.607Z,77.72
2023-04-18T01:58:00.020Z,78.74
2023-04-18T02:00:27.846Z,78.89
2023-04-18T02:02:54.349Z,78.01
2023-04-18T02:05:21.011Z,79.94
2023-04-18T02:07:47.363Z,80.76
2023-04-18T02:10:13.792Z,81.19
2023-04-18T02:12:40.278Z,83.23
2023-04-18T02:15:07.921Z,84.62
2023-04-18T02:17:35.723Z,86.46
2023-04-18T02:20:02.433Z,86.57
2023-04-18T02:22:28.893Z,90.56
2023-04-18T02:24:55.267Z,92.69
2023-04-18T02:27:21.686Z,94.29
2023-04-18T02:29:48.043Z,95.14
2023-04-18T02:32:14.406Z,92.83
2023-04-18T02:34:42.216Z,92.71
2023-04-18T02:37:08.573Z,94.03
2023-04-18T02:39:34.955Z,94.25
2023-04-18T02:42:01.343Z,92.19
2023-04-18T02:44:27.717Z,93.30
2023-04-18T02:46:54.092Z,92.67
2023-04-18T02:49:20.464Z,93.09
2023-04-18T02:51:48.165Z,93.34
2023-04-18T02:54:14.778Z,93.90
2023-04-18T02:56:41.392Z,94.44
2023-04-18T02:59:07.828Z,95.18
2023-04-18T03:01:34.321Z,95.55
2023-04-18T03:04:00.821Z,92.86
2023-04-18T03:06:27.189Z,94.45
2023-04-18T03:08:55.619Z,94.77
2023-04-18T03:11:22.077Z,94.40
2023-04-18T03:13:48.498Z,93.83
2023-04-18T03:16:15.134Z,94.02
2023-04-18T03:18:41.692Z,94.89
2023-04-18T03:21:08.053Z,95.85
2023-04-18T03:23:34.438Z,94.71
2023-04-18T03:26:02.274Z,93.26
2023-04-18T03:28:28.658Z,93.87
2023-04-18T03:30:55.136Z,93.67
2023-04-18T03:33:21.533Z,94.68
2023-04-18T03:35:47.967Z,94.28
2023-04-18T03:38:14.369Z,92.82
2023-04-18T03:40:40.797Z,93.87
2023-04-18T03:43:08.478Z,94.69
2023-04-18T03:45:34.949Z,93.86
2023-04-18T03:48:01.574Z,94.81
2023-04-18T03:50:28.262Z,93.76
2023-04-18T03:52:54.707Z,94.56
2023-04-18T03:55:21.172Z,95.63
2023-04-18T03:57:47.816Z,94.79
2023-04-18T04:00:16.231Z,93.86
2023-04-18T04:02:42.810Z,94.11
2023-04-18T04:05:09.800Z,93.30
2023-04-18T04:07:36.277Z,91.33
2023-04-18T04:10:02.836Z,91.92
2023-04-18T04:12:29.247Z,91.58
2023-04-18T04:14:55.607Z,91.33
2023-04-18T04:17:23.390Z,92.63
2023-04-18T04:19:49.812Z,89.70
2023-04-18T04:22:16.171Z,92.23
2023-04-18T04:24:42.820Z,90.88
2023-04-18T04:27:09.221Z,92.18
2023-04-18T04:29:35.620Z,91.55
2023-04-18T04:32:02.037Z,91.23
2023-04-18T04:34:29.814Z,92.82
2023-04-18T04:36:56.204Z,91.63
2023-04-18T04:39:22.600Z,90.12
2023-04-18T04:41:49.082Z,91.25
2023-04-18T04:44:15.807Z,89.15
2023-04-18T04:46:42.388Z,90.49
2023-04-18T04:49:08.763Z,89.04
2023-04-18T04:51:36.487Z,88.52
2023-04-18T04:54:03.146Z,91.24
2023-04-18T04:56:29.782Z,91.49
2023-04-18T04:58:56.275Z,90.41
2023-04-18T05:01:22.781Z,90.32
2023-04-18T05:03:49.550Z,90.71
2023-04-18T05:06:16.089Z,91.46
2023-04-18T05:08:43.861Z,91.33
2023-04-18T05:11:10.213Z,91.59
2023-04-18T05:13:36.556Z,91.70
2023-04-18T05:16:03.395Z,91.27
2023-04-18T05:18:29.891Z,89.58
2023-04-18T05:20:56.295Z,89.30
2023-04-18T05:23:22.712Z,90.90
2023-04-18T05:25:50.779Z,92.26
2023-04-18T05:28:17.159Z,89.29
2023-04-18T05:30:44.630Z,89.92
2023-04-18T05:33:11.116Z,89.69
2023-04-18T05:35:37.617Z,90.23
2023-04-18T05:38:04.024Z,89.49
2023-04-18T05:40:30.466Z,90.35
2023-04-18T05:42:58.190Z,88.85
2023-04-18T05:45:24.628Z,89.50
2023-04-18T05:47:51.021Z,88.62
2023-04-18T05:50:17.435Z,88.22
2023-04-18T05:52:43.839Z,88.87
2023-04-18T05:55:10.213Z,88.57
2023-04-18T05:57:36.656Z,86.84
2023-04-18T06:00:05.554Z,88.45
2023-04-18T06:02:32.092Z,87.85
2023-04-18T06:04:58.862Z,87.14
2023-04-18T06:07:25.408Z,87.59
2023-04-18T06:09:51.990Z,87.07
2023-04-18T06:12:18.378Z,88.39
2023-04-18T06:14:44.814Z,88.09
2023-04-18T06:17:12.809Z,88.13
2023-04-18T06:19:39.209Z,86.76
2023-04-18T06:22:05.674Z,85.07
2023-04-18T06:24:32.071Z,85.46
2023-04-18T06:26:58.443Z,85.29
2023-04-18T06:29:24.936Z,86.51
2023-04-18T06:31:51.321Z,85.53
2023-04-18T06:34:19.068Z,85.21
2023-04-18T06:36:45.633Z,85.53
2023-04-18T06:39:12.052Z,85.73
2023-04-18T06:41:38.427Z,84.65
2023-04-18T06:44:04.998Z,84.49
2023-04-18T06:46:32.018Z,82.99
2023-04-18T06:48:58.611Z,83.05
2023-04-18T06:51:26.406Z,84.14
2023-04-18T06:53:52.923Z,84.11
2023-04-18T06:56:19.789Z,84.47
2023-04-18T06:58:46.345Z,85.01
2023-04-18T07:01:12.738Z,85.47
2023-04-18T07:03:39.284Z,85.35
2023-04-18T07:06:06.253Z,84.58
2023-04-18T07:08:34.089Z,85.21
2023-04-18T07:11:00.471Z,84.35
2023-04-18T07:13:26.890Z,85.32
2023-04-18T07:15:53.266Z,84.10
2023-04-18T07:18:30.312Z,83.12
2023-04-18T07:21:03.717Z,83.21
2023-04-18T07:23:30.161Z,82.12
2023-04-18T07:25:58.109Z,83.54
2023-04-18T07:28:24.721Z,81.93
2023-04-18T07:30:51.289Z,83.53
2023-04-18T07:33:20.101Z,83.82
2023-04-18T07:35:46.718Z,84.44
2023-04-18T07:38:13.363Z,83.08
2023-04-18T07:40:39.792Z,82.55
2023-04-18T07:43:07.892Z,82.22
2023-04-18T07:45:34.281Z,82.15
2023-04-18T07:48:00.686Z,81.92
2023-04-18T07:50:27.332Z,81.51
2023-04-18T07:52:53.760Z,81.92
2023-04-18T07:55:20.129Z,80.54
2023-04-18T07:57:47.539Z,80.27
2023-04-18T08:00:16.434Z,79.30
2023-04-18T08:02:43.076Z,79.55
2023-04-18T08:05:10.100Z,79.37
2023-04-18T08:07:36.553Z,76.73
2023-04-18T08:10:03.080Z,74.15
2023-04-18T08:12:29.735Z,71.27
2023-04-18T08:14:56.233Z,66.26
2023-04-18T08:17:24.051Z,71.32
2023-04-18T08:19:50.668Z,70.78
2023-04-18T08:22:17.100Z,69.99
2023-04-18T08:25:01.038Z,62.67
2023-04-18T08:27:29.913Z,63.08
2023-04-18T08:29:56.287Z,67.06
2023-04-18T08:32:24.047Z,67.32
2023-04-18T08:34:50.470Z,68.22
2023-04-18T08:37:16.893Z,65.99
2023-04-18T08:39:43.328Z,57.72
2023-04-18T08:42:10.553Z,63.37
2023-04-18T08:44:37.238Z,63.83
2023-04-18T08:47:03.650Z,64.78
2023-04-18T08:49:31.797Z,59.61
2023-04-18T08:51:59.773Z,54.76
2023-04-18T08:54:27.412Z,59.50
2023-04-18T08:57:04.492Z,65.29
2023-04-18T08:59:30.904Z,65.81
2023-04-18T09:01:57.825Z,64.97
2023-04-18T09:04:36.905Z,65.71
2023-04-18T09:07:04.824Z,62.63
2023-04-18T09:09:45.947Z,61.73
2023-04-18T09:12:13.755Z,58.36
2023-04-18T09:14:41.302Z,58.25
2023-04-18T09:17:07.756Z,51.79
2023-04-18T09:19:35.546Z,60.87
2023-04-18T09:22:02.834Z,63.84
2023-04-18T09:24:29.244Z,60.85
2023-04-18T09:26:56.773Z,64.06
2023-04-18T09:29:40.973Z,64.58
2023-04-18T09:32:07.398Z,54.74
2023-04-18T09:34:41.966Z,58.25
2023-04-18T09:37:10.133Z,60.22
2023-04-18T09:39:37.877Z,60.31
2023-04-18T09:42:06.018Z,60.32
2023-04-18T09:44:32.501Z,60.21
2023-04-18T09:46:58.876Z,60.32
2023-04-18T09:49:25.435Z,61.49
2023-04-18T09:51:54.529Z,60.27
2023-04-18T09:54:23.847Z,58.50
2023-04-18T09:56:51.862Z,61.14
2023-04-18T09:59:32.812Z,60.96
2023-04-18T10:01:59.931Z,57.08
2023-04-18T10:04:28.055Z,58.05
2023-04-18T10:06:55.963Z,60.51
2023-04-18T10:09:22.915Z,61.65
2023-04-18T10:11:50.015Z,61.62
2023-04-18T10:14:17.346Z,61.96
2023-04-18T10:16:44.653Z,63.21
2023-04-18T10:19:29.204Z,61.13
2023-04-18T10:21:58.487Z,60.98
2023-04-18T10:24:47.777Z,61.85
2023-04-18T10:27:14.345Z,61.99
2023-04-18T10:29:47.869Z,60.32
2023-04-18T10:32:14.544Z,59.23
2023-04-18T10:34:41.062Z,59.24
2023-04-18T10:37:08.858Z,58.99
2023-04-18T10:39:49.957Z,59.17
2023-04-18T10:42:16.532Z,58.70
2023-04-18T10:44:42.939Z,57.96
2023-04-18T10:47:21.296Z,57.47
2023-04-18T10:49:56.455Z,56.27
2023-04-18T10:52:24.207Z,57.19
2023-04-18T10:54:56.079Z,57.06
2023-04-18T10:57:24.059Z,57.45
2023-04-18T10:59:51.774Z,58.11
2023-04-18T11:02:24.699Z,58.30
2023-04-18T11:04:52.120Z,57.49
2023-04-18T11:07:18.688Z,55.37
2023-04-18T11:09:53.525Z,56.54
2023-04-18T11:12:19.957Z,53.92
2023-04-18T11:14:50.097Z,55.90
2023-04-18T11:17:18.354Z,54.03
2023-04-18T11:19:44.759Z,55.16
2023-04-18T11:22:11.952Z,54.98
2023-04-18T11:24:39.098Z,54.88
2023-04-18T11:27:08.762Z,54.06
2023-04-18T11:29:35.155Z,56.34
2023-04-18T11:32:01.651Z,56.51
2023-04-18T11:34:28.995Z,55.01
2023-04-18T11:36:55.503Z,53.99
2023-04-18T11:39:22.659Z,54.18
2023-04-18T11:41:49.152Z,54.20
2023-04-18T11:44:17.081Z,53.57
2023-04-18T11:46:43.484Z,54.69
2023-04-18T11:49:24.424Z,53.65
2023-04-18T11:51:50.776Z,50.64
2023-04-18T11:54:38.621Z,52.94
2023-04-18T11:57:05.632Z,53.82
2023-04-18T11:59:33.529Z,53.39
2023-04-18T12:02:14.687Z,52.90
2023-04-18T12:04:53.637Z,54.36
2023-04-18T12:07:36.771Z,54.04
2023-04-18T12:10:05.886Z,53.10
2023-04-18T12:12:32.442Z,53.26
2023-04-18T12:15:01.800Z,54.22
2023-04-18T12:17:28.828Z,51.43
2023-04-18T12:19:55.261Z,54.21
2023-04-18T12:22:37.463Z,54.98
2023-04-18T12:25:13.740Z,54.63
2023-04-18T12:27:51.035Z,53.07
2023-04-18T12:30:20.051Z,53.20
2023-04-18T12:32:47.724Z,55.19
2023-04-18T12:35:15.062Z,54.68
2023-04-18T12:37:41.490Z,53.61
2023-04-18T12:40:08.882Z,55.13
2023-04-18T12:42:35.273Z,54.83
2023-04-18T12:45:01.680Z,55.01
2023-04-18T12:47:29.455Z,56.06
2023-04-18T12:49:55.837Z,55.45
2023-04-18T12:52:22.200Z,55.25
2023-04-18T12:54:48.580Z,55.17
2023-04-18T12:57:14.961Z,54.26
2023-04-18T12:59:41.334Z,55.44
2023-04-18T13:02:07.807Z,55.26
2023-04-18T13:04:35.799Z,54.83
2023-04-18T13:07:02.444Z,55.22
2023-04-18T13:09:28.811Z,54.26
2023-04-18T13:11:55.247Z,53.86
2023-04-18T13:14:21.858Z,54.74
2023-04-18T13:16:48.343Z,54.19
2023-04-18T13:19:14.940Z,54.38
2023-04-18T13:21:42.906Z,54.81
2023-04-18T13:24:09.325Z,55.72
2023-04-18T13:26:35.718Z,55.37
2023-04-18T13:29:02.164Z,55.50
2023-04-18T13:31:28.926Z,55.31
2023-04-18T13:33:55.362Z,55.22
2023-04-18T13:36:21.751Z,54.84
2023-04-18T13:38:50.123Z,56.84
2023-04-18T13:41:16.568Z,56.24
2023-04-18T13:43:42.944Z,55.86
2023-04-18T13:46:09.693Z,54.40
2023-04-18T13:48:36.122Z,55.04
2023-04-18T13:51:02.832Z,53.87
2023-04-18T13:53:30.843Z,53.76
2023-04-18T13:55:59.046Z,54.60
2023-04-18T13:58:25.516Z,56.96
2023-04-18T14:00:51.963Z,56.14
2023-04-18T14:03:18.724Z,55.11
2023-04-18T14:05:45.228Z,55.50
2023-04-18T14:08:11.649Z,55.13
2023-04-18T14:10:38.131Z,53.61
2023-04-18T14:13:05.838Z,54.08
2023-04-18T14:15:32.311Z,56.64
2023-04-18T14:17:58.807Z,56.12
2023-04-18T14:20:25.345Z,55.59
2023-04-18T14:22:53.223Z,56.87
2023-04-18T14:25:19.860Z,55.74
2023-04-18T14:27:47.458Z,55.53
2023-04-18T14:30:15.575Z,55.44
2023-04-18T14:32:42.025Z,54.69
2023-04-18T14:35:10.098Z,55.52
2023-04-18T14:37:36.572Z,55.17
2023-04-18T14:40:03.199Z,54.51
2023-04-18T14:42:29.568Z,53.31
2023-04-18T14:44:55.943Z,54.51
2023-04-18T14:47:24.325Z,53.31
2023-04-18T14:49:50.899Z,53.66
2023-04-18T14:52:17.285Z,54.11
2023-04-18T14:54:43.700Z,54.63
2023-04-18T14:57:10.073Z,54.90
2023-04-18T14:59:36.501Z,55.37
2023-04-18T15:02:03.047Z,55.76
2023-04-18T15:04:30.940Z,55.26
2023-04-18T15:06:57.362Z,54.82
2023-04-18T15:09:23.839Z,54.83
2023-04-18T15:11:50.373Z,55.55
2023-04-18T15:14:17.116Z,55.45
2023-04-18T15:16:43.717Z,55.66
2023-04-18T15:19:10.132Z,55.32
2023-04-18T15:21:37.867Z,54.54
2023-04-18T15:24:04.730Z,54.64
2023-04-18T15:26:33.147Z,54.49
2023-04-18T15:29:01.747Z,56.40
2023-04-18T15:31:28.169Z,55.71
2023-04-18T15:33:54.916Z,55.75
2023-04-18T15:36:21.294Z,55.62
2023-04-18T15:38:49.028Z,54.33
2023-04-18T15:41:15.428Z,54.88
2023-04-18T15:43:41.827Z,56.54
2023-04-18T15:46:08.502Z,56.02
2023-04-18T15:48:34.977Z,57.34
2023-04-18T15:51:01.583Z,58.55
2023-04-18T15:53:28.006Z,58.29
2023-04-18T15:55:55.907Z,59.50
2023-04-18T15:58:22.486Z,57.84
2023-04-18T16:00:48.869Z,58.87
2023-04-18T16:03:15.514Z,59.48
2023-04-18T16:05:42.004Z,59.94
2023-04-18T16:08:08.725Z,59.05
2023-04-18T16:10:35.118Z,58.95
2023-04-18T16:13:03.001Z,59.02
2023-04-18T16:15:30.588Z,60.01
2023-04-18T16:17:57.183Z,59.47
2023-04-18T16:20:23.669Z,58.97
2023-04-18T16:22:50.111Z,60.37
2023-04-18T16:25:16.575Z,61.22
2023-04-18T16:27:42.960Z,60.54
2023-04-18T16:30:11.882Z,60.55
2023-04-18T16:32:38.515Z,60.50
2023-04-18T16:35:05.497Z,60.52
2023-04-18T16:37:32.001Z,61.77
2023-04-18T16:39:58.382Z,62.53
2023-04-18T16:42:24.744Z,63.03
2023-04-18T16:44:51.136Z,62.36
2023-04-18T16:47:18.827Z,62.72
2023-04-18T16:49:45.200Z,63.12
2023-04-18T16:52:12.033Z,63.59
2023-04-18T16:54:38.412Z,63.72
2023-04-18T16:57:04.809Z,64.07
2023-04-18T16:59:31.268Z,63.09
2023-04-18T17:01:59.123Z,63.94
2023-04-18T17:04:27.002Z,64.31
2023-04-18T17:06:53.558Z,64.99
2023-04-18T17:09:19.938Z,64.46
2023-04-18T17:11:46.340Z,65.13
2023-04-18T17:14:12.975Z,64.39
2023-04-18T17:16:41.046Z,65.64
2023-04-18T17:19:07.953Z,65.78
2023-04-18T17:21:36.760Z,65.22
2023-04-18T17:24:03.921Z,65.52
2023-04-18T17:26:30.472Z,66.18
2023-04-18T17:28:56.880Z,65.61
2023-04-18T17:31:23.395Z,65.75
2023-04-18T17:33:49.843Z,65.07
2023-04-18T17:36:16.632Z,66.29
2023-04-18T17:38:44.424Z,65.71
2023-04-18T17:41:10.773Z,66.15
2023-04-18T17:43:37.534Z,66.22
2023-04-18T17:46:04.378Z,65.41
2023-04-18T17:48:30.849Z,66.34
2023-04-18T17:50:57.235Z,65.58
2023-04-18T17:53:23.680Z,66.29
2023-04-18T17:55:51.398Z,66.04
2023-04-18T17:58:17.975Z,65.37
2023-04-18T18:00:44.691Z,66.20
2023-04-18T18:03:12.996Z,66.13
2023-04-18T18:05:39.630Z,64.77
2023-04-18T18:08:06.024Z,66.38
2023-04-18T18:10:33.556Z,65.83
2023-04-18T18:13:01.303Z,66.06
2023-04-18T18:15:27.745Z,65.68
2023-04-18T18:17:54.236Z,66.05
2023-04-18T18:20:20.734Z,65.64
2023-04-18T18:22:47.588Z,64.45
2023-04-18T18:25:14.051Z,64.51
2023-04-18T18:27:40.700Z,65.74
2023-04-18T18:30:09.112Z,63.74
2023-04-18T18:32:35.581Z,64.72
2023-04-18T18:35:02.182Z,65.79
2023-04-18T18:37:28.603Z,64.71
2023-04-18T18:39:55.134Z,64.85
2023-04-18T18:42:21.659Z,64.81
2023-04-18T18:44:48.074Z,65.06
2023-04-18T18:47:16.481Z,64.07
2023-04-18T18:49:42.956Z,65.13
2023-04-18T18:52:09.385Z,66.37
2023-04-18T18:54:35.796Z,66.18
2023-04-18T18:57:02.193Z,65.72
2023-04-18T18:59:28.926Z,66.74
2023-04-18T19:01:55.468Z,66.26
2023-04-18T19:04:24.087Z,66.58
2023-04-18T19:06:50.644Z,67.32
2023-04-18T19:09:17.056Z,66.27
2023-04-18T19:11:43.532Z,66.70
2023-04-18T19:14:09.892Z,66.42
2023-04-18T19:16:36.389Z,66.64
2023-04-18T19:19:02.997Z,66.99
2023-04-18T19:21:30.701Z,67.24
2023-04-18T19:23:57.090Z,67.32
2023-04-18T19:26:23.510Z,66.83
2023-04-18T19:28:49.886Z,66.67
2023-04-18T19:31:16.282Z,66.85
2023-04-18T19:33:42.875Z,66.86
2023-04-18T19:36:09.252Z,67.03
2023-04-18T19:38:36.994Z,66.11
2023-04-18T19:41:03.431Z,65.46
2023-04-18T19:43:29.879Z,66.02
2023-04-18T19:45:56.344Z,65.15
2023-04-18T19:48:22.795Z,65.58
2023-04-18T19:50:49.174Z,65.55
2023-04-18T19:53:15.569Z,66.20
2023-04-18T19:55:44.529Z,65.62
2023-04-18T19:58:10.885Z,65.21
2023-04-18T20:00:37.324Z,64.44
2023-04-18T20:03:04.973Z,63.30
2023-04-18T20:05:31.708Z,63.60
2023-04-18T20:07:58.309Z,63.09
2023-04-18T20:10:24.737Z,63.65
2023-04-18T20:12:52.497Z,63.20
2023-04-18T20:15:19.164Z,63.11
2023-04-18T20:17:45.646Z,62.92
2023-04-18T20:20:12.676Z,62.71
2023-04-18T20:22:39.050Z,62.89
2023-04-18T20:25:06.313Z,62.74
2023-04-18T20:27:32.717Z,62.81
2023-04-18T20:30:00.465Z,62.61
2023-04-18T20:32:26.939Z,62.60
2023-04-18T20:34:53.450Z,62.52
2023-04-18T20:37:19.891Z,61.63
2023-04-18T20:39:46.384Z,62.93
2023-04-18T20:42:12.815Z,62.98
2023-04-18T20:44:39.197Z,61.75
2023-04-18T20:47:07.000Z,62.47
2023-04-18T20:49:33.387Z,62.65
2023-04-18T20:51:59.812Z,62.69
2023-04-18T20:54:26.334Z,62.52
2023-04-18T20:56:52.700Z,63.04
2023-04-18T20:59:19.128Z,62.61
2023-04-18T21:01:45.570Z,62.37
2023-04-18T21:04:13.686Z,62.04
2023-04-18T21:06:40.559Z,63.26
2023-04-18T21:09:07.134Z,63.39
2023-04-18T21:11:33.553Z,62.99
2023-04-18T21:13:59.969Z,62.40
2023-04-18T21:16:26.361Z,62.60
2023-04-18T21:18:53.290Z,62.66
2023-04-18T21:21:21.023Z,63.02
2023-04-18T21:23:47.487Z,63.46
2023-04-18T21:26:13.868Z,64.16
2023-04-18T21:28:53.940Z,64.16
2023-04-18T21:31:20.339Z,64.36
2023-04-18T21:33:46.764Z,64.61
2023-04-18T21:36:13.294Z,64.11
2023-04-18T21:38:41.063Z,63.49
2023-04-18T21:41:07.508Z,64.19
2023-04-18T21:43:33.892Z,63.83
2023-04-18T21:46:00.302Z,63.37
2023-04-18T21:48:26.757Z,63.63
2023-04-18T21:50:54.029Z,62.70
2023-04-18T21:53:20.417Z,63.14
2023-04-18T21:55:48.158Z,63.19
2023-04-18T21:58:14.682Z,62.78
2023-04-18T22:00:41.087Z,63.24
2023-04-18T22:03:07.622Z,62.94
2023-04-18T22:05:34.157Z,63.55
2023-04-18T22:08:00.696Z,63.03
2023-04-18T22:10:27.122Z,63.78
2023-04-18T22:12:54.854Z,63.40
2023-04-18T22:15:21.374Z,63.25
2023-04-18T22:17:48.217Z,63.31
2023-04-18T22:20:14.639Z,62.75
2023-04-18T22:22:40.988Z,62.43
2023-04-18T22:25:08.121Z,62.39
2023-04-18T22:27:34.499Z,61.81
2023-04-18T22:30:02.277Z,61.32
2023-04-18T22:32:28.793Z,61.57
2023-04-18T22:34:55.240Z,61.23
2023-04-18T22:37:21.612Z,60.37
2023-04-18T22:39:47.993Z,60.61
2023-04-18T22:42:14.409Z,60.09
2023-04-18T22:44:40.783Z,59.70
2023-04-18T22:47:08.478Z,59.15
2023-04-18T22:49:34.866Z,59.58
2023-04-18T22:52:01.250Z,59.21
2023-04-18T22:54:27.586Z,57.93
2023-04-18T22:56:53.975Z,57.66
2023-04-18T22:59:20.351Z,55.73
2023-04-18T23:01:46.800Z,53.51
2023-04-18T23:04:15.006Z,51.67
2023-04-18T23:06:41.675Z,51.71
2023-04-18T23:09:08.040Z,51.94
2023-04-18T23:11:34.425Z,51.77
2023-04-18T23:14:00.798Z,51.28
2023-04-18T23:16:27.331Z,51.67
2023-04-18T23:18:53.987Z,52.39
2023-04-18T23:21:21.732Z,52.26
2023-04-18T23:23:48.100Z,53.11
2023-04-18T23:26:15.026Z,53.28
2023-04-18T23:28:41.763Z,51.32
2023-04-18T23:31:08.483Z,49.86
2023-04-18T23:33:35.207Z,48.50
2023-04-18T23:36:01.696Z,48.21
2023-04-18T23:38:30.443Z,47.82
2023-04-18T23:40:56.819Z,47.68
2023-04-18T23:43:23.176Z,47.59
2023-04-18T23:45:49.548Z,47.75
2023-04-18T23:48:15.981Z,46.49
2023-04-18T23:50:45.196Z,44.52
2023-04-18T23:53:11.604Z,43.94
2023-04-18T23:55:39.648Z,43.26
2023-04-18T23:58:06.051Z,42.85
